الصفحة الرئيسية
METAR-TAF:

METAR-TAF

مطار :

Wanaham

Lifou, نيو كاليدونيا

دائرة عرض: 20-46S, خط طول: 167-14E, ارتفاع: 28 متر

METAR: مفقودة

زمن: 19:56 (08:56 UTC)

توقعات

تاريخ ووقت الإصدار 15ساعات و 56 دقيقة قبل الساعة 17:00UTC
التوقعات صالحة من21 الساعة 18 UTC إلى 22 الساعة 18 UTC
ريح 8 عقدة من الشرق
الرؤية 10 كم أو أكثر
غيوم متفرقة على ارتفاع 2000 قدم
نظرية الاحتمالات 40% :
مؤقت
من 21 الساعة 18 UTC إلى 21 الساعة 22 UTC
الرؤية: 4000 متر
غيوم متفرقة على ارتفاع 1800 قدم, مزن ركامية عمودية.
غيوم مفككة على ارتفاع 2500 قدم
زخات من المطر
نظرية الاحتمالات 40% :
مؤقت
من 22 الساعة 00 UTC إلى 22 الساعة 08 UTC
الرؤية: 4000 متر
غيوم متفرقة على ارتفاع 2000 قدم, مزن ركامية عمودية.
غيوم مفككة على ارتفاع 2500 قدم
زخات من المطر

TAF: NWWL 211700Z 2118/2218 08008KT 9999 SCT020 PROB40 TEMPO 2118/2122 4000 SHRA SCT018TCU BKN025 PROB40 TEMPO 2200/2208 4000 SHRA SCT020TCU BKN025

أرصاد الطقس والتوقعات من أكثر من 4000 مطار (تقارير الطقس للمطار METAR والتنبؤ بالطقس بالمطارTAF).

المحطات المتاحة هي النقط الصفراء والحمراء على الخريطة.

حرك المؤشر فوق النقطة لمعرفة اسم المحطة.

ثم انقر لمعرفة أرصاد وتوقعات الطقس.

لتغيير الخارطة: اضغط على الأزرار الخضراء مع رمز الصليب الأسود للتكبير. على الزر الأخضر مع شرطة للتصغير، أو على الأسهم الخضراء للخرائط المجاورة.


METAR-TAF: